Fairbanks, AK

1:01 PM AKST on March 06, 2015 (GMT -0900)
AKDOT 14th Avenue @ Eielson Street | Change Station
CLOSE
Current Station
Personal Weather Station
Location: Fairbanks, AK
Elevation: 482 ft
Nearby Weather Stations
Active Advisory: Winter Weather Advisory

Elev 482 ft 64.84 °N, 147.71 °W | Updated 38 minutes ago

Overcast
Overcast
28 °F
Feels Like 23 °F
N
4
Wind Variable Wind from NNW
Gusts 9.0 mph

Today
High -- | Low -- °F
--% Chance of Precip.
Yesterday
High -- | Low -- °F
Precip. -- in
7:42 AM 6:23 PM
Full, 99% visible
Pressure 30.10 in
Visibility 25.0 miles
Clouds Mostly Cloudy 2300 ft
Overcast 12000 ft
Windchill 23 °F
Dew Point 21 °F
Humidity 74%
Rainfall in
Snow Depth Not available.
UV 0 out of 12
Pollen Not available.
Air Quality Not available.
Flu Activity Not available.
METAR PAFB 062155Z 14006KT 25SM BKN023 OVC120 M02/M07 A3007 RMK SLP191

More Conditions Fewer Conditions

Pressure 30.10 in
Visibility 25.0 miles
Clouds Mostly Cloudy 2300 ft
Overcast 12000 ft
Windchill 23 °F
Dew Point 21 °F
Humidity 74%
Rainfall in
Snow Depth Not available.
UV 0 out of 12
Pollen Not available.
Air Quality Not available.
Flu Activity Not available.
METAR PAFB 062155Z 14006KT 25SM BKN023 OVC120 M02/M07 A3007 RMK SLP191

More Conditions Fewer Conditions

10-Day Weather Forecast

Almanac

Astronomy

Mar. 06, 2015 Rise Set
Actual Time
Civil Twilight
Nautical Twilight
Astronomical Twilight
Moon
Length of Visible Light
Length of Day
Tomorrow will be .
, % of the Moon is Illuminated

Today's Extremes

State Highs State Lows

Community

WunderPhotos

Upload Photos

1,803,422 photos uploaded!

WunderBlogs® & News

Nearby

Air Quality

  Air Quality AQ Index Pollutant
Not available.

Snow Depth

Station Depth Elevation

Earthquake Activity

City Distance Mag. Time & Date
Minimum magnitude displayed is 2.5.

Coastal Water Temperatures

Place Temperature

Nearby Weather Stations

Winter Weather Advisory
Statement as of 3:55 AM AKST on March 06, 2015

... Winter Weather Advisory in effect from midnight tonight to
midnight akst Saturday night...

The National Weather Service in Fairbanks has issued a Winter
Weather Advisory for snow... which is in effect from midnight
tonight to midnight akst Saturday night.

* Snow... 4 to 8 inches... heaviest over the hills.

* Timing... snow will increase late this evening and continue
through midnight Saturday night.

* Impacts... visibility may be greatly reduced. Travel and outdoor
activities will be difficult.

Precautionary/preparedness actions...

A Winter Weather Advisory means that one or more winter weather
hazards are expected to cause travel difficulties.